createdAt,value
2023-04-30T00:02:07.373Z,15.70
2023-04-30T00:04:35.948Z,15.70
2023-04-30T00:07:04.547Z,15.80
2023-04-30T00:09:32.925Z,15.70
2023-04-30T00:12:02.827Z,15.80
2023-04-30T00:14:31.278Z,15.80
2023-04-30T00:16:59.716Z,15.80
2023-04-30T00:19:28.103Z,15.80
2023-04-30T00:21:56.515Z,15.90
2023-04-30T00:24:24.971Z,15.90
2023-04-30T00:26:53.398Z,15.80
2023-04-30T00:29:23.193Z,15.80
2023-04-30T00:31:51.630Z,15.90
2023-04-30T00:34:20.106Z,15.80
2023-04-30T00:36:48.529Z,15.70
2023-04-30T00:39:17.304Z,15.60
2023-04-30T00:41:46.088Z,15.60
2023-04-30T00:44:14.487Z,15.50
2023-04-30T00:46:44.813Z,15.40
2023-04-30T00:49:13.229Z,15.40
2023-04-30T00:51:42.119Z,15.40
2023-04-30T00:54:10.632Z,15.40
2023-04-30T00:56:39.104Z,15.40
2023-04-30T00:59:07.524Z,15.40
2023-04-30T01:01:36.056Z,15.40
2023-04-30T01:04:06.137Z,15.40
2023-04-30T01:06:34.916Z,15.40
2023-04-30T01:09:03.723Z,15.40
2023-04-30T01:11:39.254Z,15.50
2023-04-30T01:14:10.819Z,15.50
2023-04-30T01:16:42.795Z,15.50
2023-04-30T01:22:46.313Z,15.40
2023-04-30T01:25:24.477Z,15.50
2023-04-30T01:28:04.874Z,15.50
2023-04-30T01:30:33.664Z,15.60
2023-04-30T01:33:02.219Z,15.60
2023-04-30T01:35:43.489Z,15.60
2023-04-30T01:38:17.254Z,15.50
2023-04-30T01:40:49.342Z,15.60
2023-04-30T01:43:24.898Z,15.50
2023-04-30T01:46:02.816Z,15.60
2023-04-30T01:48:34.381Z,15.60
2023-04-30T01:51:07.753Z,15.60
2023-04-30T01:53:42.030Z,15.60
2023-04-30T01:56:13.905Z,15.60
2023-04-30T01:58:43.845Z,15.60
2023-04-30T02:01:26.817Z,15.60
2023-04-30T02:03:55.390Z,15.70
2023-04-30T02:06:26.890Z,15.60
2023-04-30T02:08:55.535Z,15.60
2023-04-30T02:11:24.695Z,15.60
2023-04-30T02:13:54.510Z,15.60
2023-04-30T02:16:22.979Z,15.60
2023-04-30T02:18:51.467Z,15.60
2023-04-30T02:21:19.878Z,15.60
2023-04-30T02:23:48.276Z,15.60
2023-04-30T02:26:16.832Z,15.60
2023-04-30T02:28:45.329Z,15.60
2023-04-30T02:31:15.245Z,15.70
2023-04-30T02:33:43.633Z,15.60
2023-04-30T02:36:12.146Z,15.60
2023-04-30T02:38:40.620Z,15.50
2023-04-30T02:41:09.030Z,15.50
2023-04-30T02:43:37.601Z,15.50
2023-04-30T02:46:06.635Z,15.50
2023-04-30T02:48:36.481Z,15.50
2023-04-30T02:51:05.282Z,15.50
2023-04-30T02:53:33.710Z,15.50
2023-04-30T02:56:02.154Z,15.50
2023-04-30T02:58:30.719Z,15.50
2023-04-30T03:00:59.715Z,15.50
2023-04-30T03:03:28.194Z,15.40
2023-04-30T03:05:59.685Z,15.40
2023-04-30T03:08:28.340Z,15.40
2023-04-30T03:10:56.814Z,15.40
2023-04-30T03:13:26.277Z,15.40
2023-04-30T03:15:58.383Z,15.50
2023-04-30T03:18:26.933Z,15.40
2023-04-30T03:20:55.421Z,15.50
2023-04-30T03:23:25.448Z,15.40
2023-04-30T03:25:53.977Z,15.40
2023-04-30T03:28:22.919Z,15.40
2023-04-30T03:30:51.578Z,15.40
2023-04-30T03:33:20.279Z,15.40
2023-04-30T03:35:49.792Z,15.40
2023-04-30T03:38:18.370Z,15.40
2023-04-30T03:40:48.331Z,15.40
2023-04-30T03:43:16.752Z,15.50
2023-04-30T03:45:45.251Z,15.50
2023-04-30T03:48:13.795Z,15.40
2023-04-30T03:50:42.254Z,15.50
2023-04-30T03:53:10.752Z,15.50
2023-04-30T03:55:39.204Z,15.50
2023-04-30T03:58:09.084Z,15.50
2023-04-30T04:00:37.604Z,15.50
2023-04-30T04:03:07.491Z,15.50
2023-04-30T04:05:35.822Z,15.50
2023-04-30T04:08:04.425Z,15.50
2023-04-30T04:10:33.133Z,15.40
2023-04-30T04:13:01.666Z,15.50
2023-04-30T04:15:31.559Z,15.50
2023-04-30T04:18:00.021Z,15.50
2023-04-30T04:20:30.014Z,15.50
2023-04-30T04:22:58.490Z,15.50
2023-04-30T04:25:27.534Z,15.50
2023-04-30T04:27:56.026Z,15.50
2023-04-30T04:30:24.412Z,15.40
2023-04-30T04:32:54.268Z,15.50
2023-04-30T04:35:22.855Z,15.50
2023-04-30T04:37:51.335Z,15.50
2023-04-30T04:40:19.979Z,15.50
2023-04-30T04:42:51.369Z,15.50
2023-04-30T04:45:20.658Z,15.40
2023-04-30T04:47:49.432Z,15.40
2023-04-30T04:50:19.282Z,15.40
2023-04-30T04:52:47.800Z,15.40
2023-04-30T04:55:16.303Z,15.40
2023-04-30T04:57:44.771Z,15.40
2023-04-30T05:00:13.701Z,15.40
2023-04-30T05:02:42.341Z,15.40
2023-04-30T05:05:11.056Z,15.30
2023-04-30T05:07:40.952Z,15.30
2023-04-30T05:10:09.832Z,15.20
2023-04-30T05:12:38.296Z,15.30
2023-04-30T05:15:07.181Z,15.20
2023-04-30T05:17:36.009Z,15.20
2023-04-30T05:20:07.446Z,15.20
2023-04-30T05:22:35.966Z,15.30
2023-04-30T05:25:06.274Z,15.30
2023-04-30T05:27:34.629Z,15.30
2023-04-30T05:30:03.422Z,15.40
2023-04-30T05:32:31.894Z,15.40
2023-04-30T05:35:00.336Z,15.30
2023-04-30T05:37:28.731Z,15.30
2023-04-30T05:39:57.331Z,15.30
2023-04-30T05:42:27.205Z,15.40
2023-04-30T05:44:55.778Z,15.40
2023-04-30T05:47:24.279Z,15.40
2023-04-30T05:49:52.938Z,15.40
2023-04-30T05:52:21.549Z,15.50
2023-04-30T05:54:50.710Z,15.40
2023-04-30T05:57:19.268Z,15.50
2023-04-30T05:59:49.141Z,15.50
2023-04-30T06:02:17.640Z,15.60
2023-04-30T06:04:46.207Z,15.60
2023-04-30T06:07:14.705Z,15.60
2023-04-30T06:09:43.129Z,15.60
2023-04-30T06:12:11.552Z,15.60
2023-04-30T06:14:40.053Z,15.70
2023-04-30T06:17:09.884Z,15.70
2023-04-30T06:19:38.855Z,15.60
2023-04-30T06:22:07.436Z,15.60
2023-04-30T06:24:35.920Z,15.60
2023-04-30T06:27:04.480Z,15.60
2023-04-30T06:29:32.998Z,15.60
2023-04-30T06:32:01.370Z,15.60
2023-04-30T06:34:31.227Z,15.60
2023-04-30T06:36:59.657Z,15.60
2023-04-30T06:39:28.057Z,15.70
2023-04-30T06:41:56.534Z,15.70
2023-04-30T06:44:25.141Z,15.70
2023-04-30T06:46:53.470Z,15.80
2023-04-30T06:49:21.986Z,15.70
2023-04-30T06:51:51.889Z,15.70
2023-04-30T06:54:22.855Z,15.90
2023-04-30T06:56:51.334Z,15.80
2023-04-30T06:59:19.892Z,15.80
2023-04-30T07:01:48.486Z,15.80
2023-04-30T07:04:17.018Z,15.80
2023-04-30T07:06:45.740Z,15.80
2023-04-30T07:09:16.334Z,15.80
2023-04-30T07:11:45.321Z,15.70
2023-04-30T07:14:13.680Z,15.80
2023-04-30T07:16:42.264Z,15.90
2023-04-30T07:19:10.681Z,16.00
2023-04-30T07:21:39.147Z,16.00
2023-04-30T07:24:07.681Z,16.00
2023-04-30T07:26:37.769Z,16.00
2023-04-30T07:29:06.145Z,16.10
2023-04-30T07:31:34.623Z,16.00
2023-04-30T07:34:03.115Z,16.00
2023-04-30T07:36:31.726Z,16.00
2023-04-30T07:39:00.224Z,15.90
2023-04-30T07:41:28.941Z,16.00
2023-04-30T07:43:59.858Z,15.90
2023-04-30T07:46:28.519Z,15.80
2023-04-30T07:48:57.040Z,15.80
2023-04-30T07:51:26.021Z,15.80
2023-04-30T07:53:54.587Z,15.70
2023-04-30T07:56:23.144Z,15.70
2023-04-30T07:58:51.594Z,15.60
2023-04-30T08:01:21.585Z,15.70
2023-04-30T08:03:50.024Z,15.80
2023-04-30T08:06:18.673Z,15.70
2023-04-30T08:08:48.182Z,15.70
2023-04-30T08:11:17.243Z,15.90
2023-04-30T08:13:46.619Z,15.90
2023-04-30T08:16:15.006Z,16.00
2023-04-30T08:18:46.301Z,16.00
2023-04-30T08:21:14.817Z,16.00
2023-04-30T08:23:43.311Z,16.10
2023-04-30T08:26:11.694Z,16.00
2023-04-30T08:28:40.075Z,16.10
2023-04-30T08:31:08.689Z,16.10
2023-04-30T08:33:37.114Z,16.20
2023-04-30T08:36:07.268Z,16.10
2023-04-30T08:38:35.813Z,16.20
2023-04-30T08:41:06.981Z,16.30
2023-04-30T08:43:36.299Z,16.30
2023-04-30T08:46:05.213Z,16.30
2023-04-30T08:48:33.671Z,16.50
2023-04-30T08:51:02.627Z,16.60
2023-04-30T08:53:32.868Z,16.60
2023-04-30T08:56:01.349Z,16.60
2023-04-30T08:58:29.815Z,16.60
2023-04-30T09:00:59.284Z,16.60
2023-04-30T09:03:28.646Z,16.60
2023-04-30T09:05:57.360Z,16.60
2023-04-30T09:08:40.661Z,16.60
2023-04-30T09:11:21.940Z,16.60
2023-04-30T09:13:51.170Z,16.40
2023-04-30T09:16:19.723Z,16.40
2023-04-30T09:18:48.702Z,16.30
2023-04-30T09:21:17.128Z,16.40
2023-04-30T09:23:55.568Z,16.50
2023-04-30T09:26:29.533Z,16.40
2023-04-30T09:28:58.826Z,16.50
2023-04-30T09:31:27.382Z,16.50
2023-04-30T09:33:55.924Z,16.30
2023-04-30T09:36:24.513Z,16.40
2023-04-30T09:38:52.946Z,16.50
2023-04-30T09:41:25.829Z,16.60
2023-04-30T09:43:55.938Z,16.50
2023-04-30T09:46:31.502Z,16.60
2023-04-30T09:49:00.543Z,16.70
2023-04-30T09:51:29.453Z,16.70
2023-04-30T09:53:57.948Z,16.60
2023-04-30T09:56:27.274Z,16.60
2023-04-30T09:58:58.674Z,16.70
2023-04-30T10:01:28.112Z,16.80
2023-04-30T10:03:56.835Z,16.80
2023-04-30T10:06:25.465Z,16.70
2023-04-30T10:08:54.768Z,16.80
2023-04-30T10:11:23.899Z,16.80
2023-04-30T10:13:54.124Z,16.80
2023-04-30T10:16:28.998Z,17.00
2023-04-30T10:18:59.577Z,17.10
2023-04-30T10:21:28.598Z,17.10
2023-04-30T10:23:57.419Z,17.20
2023-04-30T10:26:26.012Z,17.10
2023-04-30T10:28:55.298Z,17.10
2023-04-30T10:31:24.017Z,17.20
2023-04-30T10:33:59.524Z,17.00
2023-04-30T10:36:32.253Z,17.00
2023-04-30T10:39:01.229Z,17.00
2023-04-30T10:41:30.215Z,16.90
2023-04-30T10:44:01.824Z,17.00
2023-04-30T10:46:30.699Z,16.90
2023-04-30T10:49:00.780Z,17.00
2023-04-30T10:51:44.067Z,17.00
2023-04-30T10:54:13.825Z,17.10
2023-04-30T10:56:42.361Z,17.10
2023-04-30T10:59:10.828Z,17.20
2023-04-30T11:01:54.268Z,17.30
2023-04-30T11:04:24.398Z,17.30
2023-04-30T11:07:09.677Z,17.30
2023-04-30T11:09:39.185Z,17.40
2023-04-30T11:12:11.729Z,17.30
2023-04-30T11:14:44.216Z,17.20
2023-04-30T11:17:13.128Z,17.20
2023-04-30T11:19:49.860Z,17.30
2023-04-30T11:22:22.601Z,17.30
2023-04-30T11:24:51.708Z,17.30
2023-04-30T11:27:24.183Z,17.30
2023-04-30T11:29:53.634Z,17.20
2023-04-30T11:32:23.118Z,17.20
2023-04-30T11:34:53.048Z,17.00
2023-04-30T11:37:22.208Z,16.90
2023-04-30T11:39:51.270Z,17.00
2023-04-30T11:42:20.020Z,17.00
2023-04-30T11:44:48.669Z,16.90
2023-04-30T11:47:17.253Z,17.00
2023-04-30T11:49:45.709Z,17.00
2023-04-30T11:52:15.725Z,16.90
2023-04-30T11:54:44.170Z,17.00
2023-04-30T11:57:12.521Z,16.90
2023-04-30T11:59:43.936Z,16.90
2023-04-30T12:02:15.909Z,17.10
2023-04-30T12:04:44.747Z,17.10
2023-04-30T12:07:13.306Z,17.20
2023-04-30T12:09:56.508Z,17.20
2023-04-30T12:12:28.944Z,17.10
2023-04-30T12:14:57.468Z,17.10
2023-04-30T12:17:32.115Z,17.10
2023-04-30T12:20:00.801Z,16.90
2023-04-30T12:22:29.708Z,17.00
2023-04-30T12:25:00.688Z,17.00
2023-04-30T12:27:29.625Z,16.80
2023-04-30T12:29:58.152Z,17.00
2023-04-30T12:32:26.811Z,17.00
2023-04-30T12:34:59.155Z,17.20
2023-04-30T12:37:27.950Z,17.10
2023-04-30T12:39:57.195Z,17.00
2023-04-30T12:42:33.115Z,17.00
2023-04-30T12:45:01.739Z,17.00
2023-04-30T12:47:30.837Z,17.00
2023-04-30T12:49:59.440Z,17.00
2023-04-30T12:52:27.945Z,17.00
2023-04-30T12:54:56.646Z,17.10
2023-04-30T12:57:25.138Z,17.00
2023-04-30T13:00:01.187Z,16.90
2023-04-30T13:02:32.183Z,16.90
2023-04-30T13:05:00.890Z,16.90
2023-04-30T13:07:38.241Z,16.80
2023-04-30T13:10:07.366Z,16.80
2023-04-30T13:12:35.950Z,16.80
2023-04-30T13:15:06.476Z,16.80
2023-04-30T13:17:34.946Z,16.80
2023-04-30T13:20:03.361Z,16.80
2023-04-30T13:22:31.777Z,16.80
2023-04-30T13:25:00.949Z,16.80
2023-04-30T13:27:29.393Z,16.80
2023-04-30T13:29:58.144Z,17.00
2023-04-30T13:32:28.320Z,17.00
2023-04-30T13:34:58.500Z,17.10
2023-04-30T13:37:27.017Z,17.10
2023-04-30T13:39:55.727Z,17.10
2023-04-30T13:42:25.628Z,17.20
2023-04-30T13:44:54.046Z,17.30
2023-04-30T13:47:22.575Z,17.30
2023-04-30T13:49:52.338Z,17.50
2023-04-30T13:52:21.012Z,17.50
2023-04-30T13:54:49.458Z,17.60
2023-04-30T13:57:17.838Z,17.60
2023-04-30T13:59:46.964Z,17.60
2023-04-30T14:02:15.915Z,17.70
2023-04-30T14:04:54.686Z,17.80
2023-04-30T14:07:32.298Z,17.80
2023-04-30T14:10:00.897Z,17.90
2023-04-30T14:12:30.620Z,17.80
2023-04-30T14:14:59.465Z,17.90
2023-04-30T14:17:28.361Z,17.90
2023-04-30T14:19:57.199Z,17.90
2023-04-30T14:22:27.897Z,18.00
2023-04-30T14:24:57.780Z,18.00
2023-04-30T14:27:26.364Z,17.90
2023-04-30T14:29:55.225Z,17.90
2023-04-30T14:32:26.381Z,18.00
2023-04-30T14:34:54.953Z,18.00
2023-04-30T14:37:23.522Z,18.00
2023-04-30T14:39:51.995Z,18.00
2023-04-30T14:42:21.875Z,18.00
2023-04-30T14:44:50.379Z,18.00
2023-04-30T14:47:20.306Z,18.00
2023-04-30T14:49:50.298Z,18.00
2023-04-30T14:52:18.756Z,18.00
2023-04-30T14:54:47.150Z,18.00
2023-04-30T14:57:15.637Z,18.00
2023-04-30T14:59:45.575Z,18.00
2023-04-30T15:02:14.371Z,17.90
2023-04-30T15:04:46.150Z,17.90
2023-04-30T15:07:14.838Z,17.80
2023-04-30T15:09:44.769Z,17.80
2023-04-30T15:12:13.149Z,17.70
2023-04-30T15:14:41.641Z,17.60
2023-04-30T15:17:11.995Z,17.60
2023-04-30T15:19:40.523Z,17.60
2023-04-30T15:22:09.005Z,17.60
2023-04-30T15:24:37.458Z,17.50
2023-04-30T15:27:06.008Z,17.40
2023-04-30T15:29:34.665Z,17.40
2023-04-30T15:32:03.023Z,17.40
2023-04-30T15:34:32.831Z,17.40
2023-04-30T15:37:02.618Z,17.40
2023-04-30T15:39:31.077Z,17.40
2023-04-30T15:41:59.494Z,17.40
2023-04-30T15:44:28.060Z,17.30
2023-04-30T15:46:56.761Z,17.30
2023-04-30T15:49:25.243Z,17.30
2023-04-30T15:51:55.049Z,17.40
2023-04-30T15:54:23.591Z,17.60
2023-04-30T15:56:52.679Z,17.50
2023-04-30T15:59:21.170Z,17.40
2023-04-30T16:01:49.659Z,17.40
2023-04-30T16:04:18.236Z,17.30
2023-04-30T16:06:46.954Z,17.30
2023-04-30T16:09:19.710Z,17.20
2023-04-30T16:11:48.521Z,17.20
2023-04-30T16:14:16.963Z,17.20
2023-04-30T16:16:45.388Z,17.30
2023-04-30T16:19:14.152Z,17.30
2023-04-30T16:21:42.597Z,17.30
2023-04-30T16:24:11.175Z,17.20
2023-04-30T16:26:41.033Z,17.30
2023-04-30T16:29:09.619Z,17.30
2023-04-30T16:31:38.249Z,17.30
2023-04-30T16:34:11.439Z,17.30
2023-04-30T16:36:40.372Z,17.30
2023-04-30T16:39:08.818Z,17.30
2023-04-30T16:41:37.352Z,17.30
2023-04-30T16:44:07.600Z,17.20
2023-04-30T16:46:36.449Z,17.10
2023-04-30T16:49:05.201Z,17.10
2023-04-30T16:51:33.682Z,17.00
2023-04-30T16:54:02.109Z,16.90
2023-04-30T16:56:30.587Z,16.90
2023-04-30T16:58:58.960Z,16.90
2023-04-30T17:01:28.887Z,16.90
2023-04-30T17:03:57.371Z,16.90
2023-04-30T17:06:26.446Z,16.90
2023-04-30T17:08:55.271Z,16.90
2023-04-30T17:11:25.233Z,16.90
2023-04-30T17:13:55.280Z,16.90
2023-04-30T17:16:23.801Z,16.80
2023-04-30T17:18:53.760Z,16.80
2023-04-30T17:21:22.133Z,16.80
2023-04-30T17:23:50.574Z,16.80
2023-04-30T17:26:18.947Z,16.80
2023-04-30T17:28:47.394Z,16.80
2023-04-30T17:31:15.817Z,16.80
2023-04-30T17:33:46.048Z,16.80
2023-04-30T17:36:16.218Z,16.70
2023-04-30T17:38:44.691Z,16.60
2023-04-30T17:41:13.200Z,16.60
2023-04-30T17:43:41.594Z,16.60
2023-04-30T17:46:10.286Z,16.60
2023-04-30T17:48:38.786Z,16.70
2023-04-30T17:51:07.967Z,16.60
2023-04-30T17:53:37.998Z,16.70
2023-04-30T17:56:06.650Z,16.60
2023-04-30T17:58:35.607Z,16.60
2023-04-30T18:01:05.577Z,16.60
2023-04-30T18:03:36.402Z,16.60
2023-04-30T18:06:05.265Z,16.60
2023-04-30T18:08:33.834Z,16.60
2023-04-30T18:11:03.840Z,16.60
2023-04-30T18:13:32.860Z,16.70
2023-04-30T18:16:01.650Z,16.60
2023-04-30T18:18:30.111Z,16.60
2023-04-30T18:20:58.685Z,16.60
2023-04-30T18:23:27.230Z,16.60
2023-04-30T18:25:55.773Z,16.60
2023-04-30T18:28:25.879Z,16.50
2023-04-30T18:30:54.743Z,16.50
2023-04-30T18:33:23.366Z,16.50
2023-04-30T18:35:52.504Z,16.50
2023-04-30T18:38:20.984Z,16.50
2023-04-30T18:40:49.418Z,16.50
2023-04-30T18:43:17.751Z,16.40
2023-04-30T18:45:47.755Z,16.40
2023-04-30T18:48:18.954Z,16.40
2023-04-30T18:50:47.567Z,16.50
2023-04-30T18:53:16.382Z,16.40
2023-04-30T18:55:45.418Z,16.50
2023-04-30T18:58:13.936Z,16.60
2023-04-30T19:00:43.036Z,16.50
2023-04-30T19:03:13.285Z,16.50
2023-04-30T19:05:42.665Z,16.50
2023-04-30T19:08:11.087Z,16.50
2023-04-30T19:10:39.553Z,16.50
2023-04-30T19:13:07.963Z,16.40
2023-04-30T19:15:36.478Z,16.40
2023-04-30T19:18:05.058Z,16.40
2023-04-30T19:20:35.041Z,16.50
2023-04-30T19:23:03.810Z,16.50
2023-04-30T19:25:32.346Z,16.60
2023-04-30T19:28:01.761Z,16.60
2023-04-30T19:30:30.340Z,16.60
2023-04-30T19:32:58.790Z,16.60
2023-04-30T19:35:27.288Z,16.60
2023-04-30T19:37:57.154Z,16.50
2023-04-30T19:40:25.603Z,16.50
2023-04-30T19:42:54.896Z,16.50
2023-04-30T19:45:23.531Z,16.50
2023-04-30T19:47:51.941Z,16.50
2023-04-30T19:50:21.007Z,16.50
2023-04-30T19:52:49.303Z,16.50
2023-04-30T19:55:19.127Z,16.50
2023-04-30T19:57:47.731Z,16.50
2023-04-30T20:00:16.486Z,16.40
2023-04-30T20:02:45.219Z,16.40
2023-04-30T20:05:14.110Z,16.40
2023-04-30T20:07:42.611Z,16.40
2023-04-30T20:10:11.648Z,16.40
2023-04-30T20:12:41.497Z,16.50
2023-04-30T20:15:10.284Z,16.30
2023-04-30T20:17:38.829Z,16.30
2023-04-30T20:20:07.890Z,16.30
2023-04-30T20:22:36.332Z,16.40
2023-04-30T20:25:04.914Z,16.40
2023-04-30T20:27:34.264Z,16.40
2023-04-30T20:30:04.949Z,16.40
2023-04-30T20:32:34.940Z,16.30
2023-04-30T20:35:03.618Z,16.30
2023-04-30T20:37:32.913Z,16.40
2023-04-30T20:40:01.576Z,16.30
2023-04-30T20:42:29.970Z,16.30
2023-04-30T20:44:58.397Z,16.40
2023-04-30T20:47:28.427Z,16.40
2023-04-30T20:49:57.261Z,16.40
2023-04-30T20:52:26.156Z,16.40
2023-04-30T20:54:54.668Z,16.40
2023-04-30T20:57:23.122Z,16.40
2023-04-30T20:59:51.591Z,16.50
2023-04-30T21:02:19.995Z,16.50
2023-04-30T21:04:49.729Z,16.50
2023-04-30T21:07:18.144Z,16.50
2023-04-30T21:09:46.619Z,16.50
2023-04-30T21:12:15.001Z,16.40
2023-04-30T21:14:43.417Z,16.30
2023-04-30T21:17:11.969Z,16.30
2023-04-30T21:19:40.480Z,16.30
2023-04-30T21:22:10.484Z,16.30
2023-04-30T21:24:39.926Z,16.30
2023-04-30T21:27:08.439Z,16.30
2023-04-30T21:29:36.958Z,16.30
2023-04-30T21:32:06.157Z,16.30
2023-04-30T21:34:34.721Z,16.30
2023-04-30T21:37:03.520Z,16.30
2023-04-30T21:39:33.889Z,16.30
2023-04-30T21:42:04.114Z,16.30
2023-04-30T21:44:33.787Z,16.40
2023-04-30T21:47:02.303Z,16.40
2023-04-30T21:49:31.319Z,16.30
2023-04-30T21:51:59.834Z,16.30
2023-04-30T21:54:28.406Z,16.30
2023-04-30T21:56:58.185Z,16.30
2023-04-30T21:59:26.671Z,16.40
2023-04-30T22:01:55.228Z,16.30
2023-04-30T22:04:25.356Z,16.30
2023-04-30T22:06:54.238Z,16.30
2023-04-30T22:09:23.689Z,16.30
2023-04-30T22:11:52.043Z,16.30
2023-04-30T22:14:21.906Z,16.30
2023-04-30T22:16:50.445Z,16.30
2023-04-30T22:19:18.834Z,16.30
2023-04-30T22:21:47.244Z,16.30
2023-04-30T22:24:16.265Z,16.30
2023-04-30T22:26:44.816Z,16.30
2023-04-30T22:29:13.366Z,16.30
2023-04-30T22:31:43.267Z,16.30
2023-04-30T22:34:12.588Z,16.30
2023-04-30T22:36:41.097Z,16.30
2023-04-30T22:39:10.125Z,16.30
2023-04-30T22:41:38.882Z,16.30
2023-04-30T22:44:07.526Z,16.30
2023-04-30T22:46:36.908Z,16.40
2023-04-30T22:49:07.636Z,16.40
2023-04-30T22:51:37.613Z,16.40
2023-04-30T22:54:06.171Z,16.40
2023-04-30T22:56:34.668Z,16.40
2023-04-30T22:59:03.364Z,16.30
2023-04-30T23:01:31.921Z,16.30
2023-04-30T23:04:00.440Z,16.30
2023-04-30T23:06:31.122Z,16.30
2023-04-30T23:08:59.608Z,16.30
2023-04-30T23:11:28.026Z,16.30
2023-04-30T23:13:56.880Z,16.40
2023-04-30T23:16:25.389Z,16.30
2023-04-30T23:18:54.050Z,16.30
2023-04-30T23:21:22.844Z,16.30
2023-04-30T23:23:52.661Z,16.30
2023-04-30T23:26:21.368Z,16.40
2023-04-30T23:28:49.826Z,16.30
2023-04-30T23:31:18.339Z,16.30
2023-04-30T23:33:46.811Z,16.30
2023-04-30T23:36:15.262Z,16.30
2023-04-30T23:38:43.937Z,16.30
2023-04-30T23:41:14.465Z,16.30
2023-04-30T23:43:42.994Z,16.20
2023-04-30T23:46:11.600Z,16.20
2023-04-30T23:48:40.045Z,16.20
2023-04-30T23:51:09.106Z,16.20
2023-04-30T23:53:37.632Z,16.20
2023-04-30T23:56:06.333Z,16.20
2023-04-30T23:58:36.514Z,16.20
